Time;durP1;ratioP1;P1;durP2;ratioP2;P2;SDS_P1;SDS_P2;PMS_P1;PMS_P2;Temp;Humidity;BMP_temperature;BMP_pressure;BME280_temperature;BME280_humidity;BME280_pressure;Samples;Min_cycle;Max_cycle;Signal;HPM_P1;HPM_P2
2022/10/13 00:00:43;;;;;;;19.77;12.93;;;9.40;99.90;;;;;;5034765;28;20051;-64
2022/10/13 00:03:10;;;;;;;22.20;13.23;;;9.50;99.90;;;;;;5045558;28;20044;-65
2022/10/13 00:05:40;;;;;;;23.35;12.70;;;9.40;99.90;;;;;;5043943;28;20067;-65
2022/10/13 00:08:06;;;;;;;21.58;13.40;;;9.40;99.90;;;;;;5041058;28;20080;-65
2022/10/13 00:10:36;;;;;;;20.42;12.95;;;9.40;99.90;;;;;;5041729;28;20040;-64
2022/10/13 00:13:03;;;;;;;20.48;12.40;;;9.40;99.90;;;;;;5042985;28;20069;-65
2022/10/13 00:15:28;;;;;;;24.15;12.80;;;9.40;99.90;;;;;;5042048;28;20046;-65
2022/10/13 00:17:54;;;;;;;22.63;13.10;;;9.40;99.90;;;;;;5039876;28;20047;-65
2022/10/13 00:20:20;;;;;;;20.48;13.35;;;9.40;99.90;;;;;;5039721;28;20045;-65
2022/10/13 00:22:45;;;;;;;21.90;13.73;;;9.40;99.90;;;;;;5040615;28;20103;-65
2022/10/13 00:25:11;;;;;;;24.83;13.25;;;9.50;99.90;;;;;;5043435;28;20033;-64
2022/10/13 00:27:37;;;;;;;18.75;13.45;;;9.40;99.90;;;;;;5040164;28;20050;-65
2022/10/13 00:30:03;;;;;;;24.90;13.98;;;9.50;99.90;;;;;;5039388;28;20045;-65
2022/10/13 00:32:29;;;;;;;23.40;12.20;;;9.50;99.90;;;;;;5041949;28;20090;-65
2022/10/13 00:34:56;;;;;;;20.45;13.70;;;9.50;99.90;;;;;;5038877;28;20739;-65
2022/10/13 00:37:22;;;;;;;21.67;14.10;;;9.50;99.90;;;;;;5042721;28;20052;-64
2022/10/13 00:39:48;;;;;;;25.20;13.95;;;9.40;99.90;;;;;;5039730;28;20052;-64
2022/10/13 00:42:14;;;;;;;20.25;12.45;;;9.50;99.90;;;;;;5038289;28;20428;-64
2022/10/13 00:45:01;;;;;;;23.77;13.90;;;9.50;99.90;;;;;;5037813;28;20043;-64
2022/10/13 00:47:46;;;;;;;22.50;13.45;;;9.50;99.90;;;;;;5040698;28;20037;-65
2022/10/13 00:50:20;;;;;;;21.73;13.60;;;9.40;99.90;;;;;;5043723;28;20037;-64
2022/10/13 00:52:46;;;;;;;20.00;13.07;;;9.40;99.90;;;;;;5045838;28;20037;-65
2022/10/13 00:55:16;;;;;;;23.05;13.77;;;9.50;99.90;;;;;;5035797;28;20307;-65
2022/10/13 00:57:45;;;;;;;19.35;14.35;;;9.40;99.90;;;;;;5041115;28;20033;-65
2022/10/13 01:00:11;;;;;;;20.65;13.15;;;9.50;99.90;;;;;;5041110;28;20037;-65
2022/10/13 01:02:37;;;;;;;21.90;14.65;;;9.50;99.90;;;;;;5042525;28;20044;-65
2022/10/13 01:05:05;;;;;;;24.83;13.93;;;9.50;99.90;;;;;;5034608;28;20189;-65
2022/10/13 01:07:32;;;;;;;19.13;13.45;;;9.50;99.90;;;;;;5035778;28;20049;-65
2022/10/13 01:09:59;;;;;;;25.35;13.93;;;9.50;99.90;;;;;;5042426;28;20075;-65
2022/10/13 01:13:09;;;;;;;26.85;13.10;;;9.50;99.90;;;;;;5042411;28;20052;-65
2022/10/13 01:15:53;;;;;;;25.55;14.32;;;9.50;99.90;;;;;;5010470;28;20053;-64
2022/10/13 01:18:32;;;;;;;21.23;13.07;;;9.50;99.90;;;;;;5039100;28;20430;-63
2022/10/13 01:21:16;;;;;;;21.85;13.30;;;9.50;99.90;;;;;;5039412;28;20041;-64
2022/10/13 01:24:00;;;;;;;20.63;13.13;;;9.50;99.90;;;;;;5037742;28;20121;-64
2022/10/13 01:26:38;;;;;;;23.90;13.70;;;9.50;99.90;;;;;;5039432;28;20451;-64
2022/10/13 01:29:49;;;;;;;21.83;13.18;;;9.50;99.90;;;;;;5041602;28;20045;-63
2022/10/13 01:32:33;;;;;;;18.80;12.68;;;9.50;99.90;;;;;;5015095;28;20052;-64
2022/10/13 01:35:28;;;;;;;20.85;12.90;;;9.50;99.90;;;;;;5039877;28;20048;-64
2022/10/13 01:37:58;;;;;;;;;;;9.50;99.90;;;;;;5024442;28;20683;-64
2022/10/13 01:40:31;;;;;;;21.77;13.23;;;9.50;99.90;;;;;;5041603;28;19925;-64
2022/10/13 01:43:19;;;;;;;22.23;13.15;;;9.40;99.90;;;;;;5032056;28;20037;-65
2022/10/13 01:46:16;;;;;;;22.85;13.20;;;9.40;99.90;;;;;;5039969;28;20029;-64
2022/10/13 01:48:44;;;;;;;21.90;13.20;;;9.50;99.90;;;;;;5027587;28;20114;-63
2022/10/13 01:51:15;;;;;;;25.52;13.60;;;9.40;99.90;;;;;;5040306;28;20053;-64
2022/10/13 01:53:42;;;;;;;20.95;12.77;;;9.40;99.90;;;;;;5031774;28;20041;-64
2022/10/13 01:56:08;;;;;;;21.45;14.18;;;9.40;99.90;;;;;;5043227;28;20405;-64
2022/10/13 01:58:36;;;;;;;22.75;13.85;;;9.50;99.90;;;;;;5039539;28;20047;-64
2022/10/13 02:01:31;;;;;;;24.80;13.70;;;9.40;99.90;;;;;;5038045;28;20041;-64
2022/10/13 02:04:12;;;;;;;22.25;13.45;;;9.40;99.90;;;;;;5034246;28;20037;-64
2022/10/13 02:06:41;;;;;;;28.70;15.20;;;9.50;99.90;;;;;;5037088;28;20256;-64
2022/10/13 02:09:26;;;;;;;28.17;15.63;;;9.50;99.90;;;;;;5039319;28;20052;-64
2022/10/13 02:12:01;;;;;;;22.20;14.43;;;9.50;99.90;;;;;;5035898;28;20052;-64
2022/10/13 02:14:31;;;;;;;23.80;13.75;;;9.50;99.90;;;;;;5036644;28;20440;-64
2022/10/13 02:17:01;;;;;;;22.33;14.45;;;9.50;99.90;;;;;;5039222;28;20041;-63
2022/10/13 02:19:28;;;;;;;21.65;13.90;;;9.40;99.90;;;;;;5033212;28;20478;-64
2022/10/13 02:21:56;;;;;;;24.20;13.45;;;9.50;99.90;;;;;;5037997;28;20488;-63
2022/10/13 02:24:22;;;;;;;19.65;13.52;;;9.50;99.90;;;;;;5038359;28;20033;-64
2022/10/13 02:26:49;;;;;;;18.52;13.55;;;9.50;99.90;;;;;;5045474;28;20048;-64
2022/10/13 02:29:16;;;;;;;23.73;14.27;;;9.40;99.90;;;;;;5042782;28;20020;-64
2022/10/13 02:31:43;;;;;;;23.42;15.45;;;9.50;99.90;;;;;;5046104;28;20091;-64
2022/10/13 02:34:09;;;;;;;22.90;14.13;;;9.50;99.90;;;;;;5039649;28;20048;-64
2022/10/13 02:36:36;;;;;;;22.00;15.07;;;9.50;99.90;;;;;;5047976;28;20400;-63
2022/10/13 02:39:03;;;;;;;20.30;13.93;;;9.60;99.90;;;;;;5039257;28;20072;-64
2022/10/13 02:41:30;;;;;;;23.27;14.98;;;9.50;99.90;;;;;;5044260;28;20099;-63
2022/10/13 02:43:55;;;;;;;22.65;14.70;;;9.60;99.90;;;;;;5038651;28;20045;-64
2022/10/13 02:46:21;;;;;;;22.80;13.68;;;9.60;99.90;;;;;;5040726;28;20045;-64
2022/10/13 02:48:47;;;;;;;22.90;14.38;;;9.60;99.90;;;;;;5040115;28;20481;-64
2022/10/13 02:51:13;;;;;;;22.45;14.73;;;9.60;99.90;;;;;;5040770;28;20048;-63
2022/10/13 02:53:38;;;;;;;24.60;14.68;;;9.60;99.90;;;;;;5041942;28;20037;-64
2022/10/13 02:56:05;;;;;;;23.17;14.52;;;9.70;99.90;;;;;;5044510;28;20420;-64
2022/10/13 02:58:30;;;;;;;26.83;15.90;;;9.60;99.90;;;;;;5041172;28;20093;-64
2022/10/13 03:01:08;;;;;;;19.77;13.55;;;9.60;99.90;;;;;;5040894;28;20499;-64
2022/10/13 03:03:34;;;;;;;21.70;14.40;;;9.60;99.90;;;;;;5043907;28;20044;-64
2022/10/13 03:06:00;;;;;;;23.42;14.70;;;9.60;99.90;;;;;;5041991;28;20029;-64
2022/10/13 03:08:26;;;;;;;23.40;14.65;;;9.70;99.90;;;;;;5042695;28;20214;-63
2022/10/13 03:10:52;;;;;;;21.08;14.65;;;9.70;99.90;;;;;;5039013;28;20088;-64
2022/10/13 03:13:18;;;;;;;20.73;14.15;;;9.70;99.90;;;;;;5041523;28;20029;-63
2022/10/13 03:15:45;;;;;;;26.98;15.82;;;9.70;99.90;;;;;;5041931;28;20048;-64
2022/10/13 03:18:10;;;;;;;20.27;15.02;;;9.70;99.90;;;;;;5037729;28;20088;-64
2022/10/13 03:20:36;;;;;;;21.45;15.18;;;9.70;99.90;;;;;;5035957;28;20537;-64
2022/10/13 03:23:02;;;;;;;22.50;14.98;;;9.80;99.90;;;;;;5043758;28;20115;-64
2022/10/13 03:25:27;;;;;;;24.55;14.75;;;9.80;99.90;;;;;;5042605;28;20151;-65
2022/10/13 03:27:55;;;;;;;23.15;15.52;;;9.80;99.90;;;;;;5036335;28;20187;-65
2022/10/13 03:30:20;;;;;;;20.30;15.65;;;9.80;99.90;;;;;;5040852;28;20040;-65
2022/10/13 03:32:46;;;;;;;23.95;16.15;;;9.80;99.90;;;;;;5043793;28;20033;-66
2022/10/13 03:35:12;;;;;;;25.88;16.67;;;9.80;99.90;;;;;;5021928;28;20053;-66
2022/10/13 03:37:38;;;;;;;25.52;16.42;;;9.80;99.90;;;;;;5037495;28;20033;-67
2022/10/13 03:40:04;;;;;;;23.92;17.55;;;9.70;99.90;;;;;;5037985;28;20051;-66
2022/10/13 03:42:30;;;;;;;30.40;18.30;;;9.80;99.90;;;;;;5038126;28;20036;-66
2022/10/13 03:44:55;;;;;;;28.80;16.98;;;9.70;99.90;;;;;;5038768;28;20034;-66
2022/10/13 03:47:21;;;;;;;26.83;17.52;;;9.80;99.90;;;;;;5040385;28;20041;-66
2022/10/13 03:49:46;;;;;;;29.73;17.50;;;9.70;99.90;;;;;;5042520;28;20163;-66
2022/10/13 03:52:12;;;;;;;26.70;16.83;;;9.80;99.90;;;;;;5039466;28;20037;-67
2022/10/13 03:54:38;;;;;;;27.25;17.63;;;9.70;99.90;;;;;;5036269;28;20482;-67
2022/10/13 03:57:03;;;;;;;28.73;17.85;;;9.70;99.90;;;;;;5037514;28;20122;-66
2022/10/13 03:59:30;;;;;;;33.63;18.65;;;9.70;99.90;;;;;;5041465;28;20119;-65
2022/10/13 04:01:55;;;;;;;28.73;19.45;;;9.80;99.90;;;;;;5036102;28;20644;-67
2022/10/13 04:04:21;;;;;;;28.13;18.40;;;9.80;99.90;;;;;;5038406;28;20477;-67
2022/10/13 04:06:47;;;;;;;31.77;18.45;;;9.80;99.90;;;;;;5035360;28;20060;-67
2022/10/13 04:09:12;;;;;;;27.70;18.55;;;9.80;99.90;;;;;;5041940;28;20105;-67
2022/10/13 04:11:38;;;;;;;34.00;19.42;;;9.80;99.90;;;;;;5039564;28;20029;-67
2022/10/13 04:14:04;;;;;;;23.83;18.70;;;9.80;99.90;;;;;;5040831;28;20040;-67
2022/10/13 04:16:30;;;;;;;34.55;22.17;;;9.80;99.90;;;;;;5039191;28;20041;-68
2022/10/13 04:18:57;;;;;;;28.90;19.95;;;9.80;99.90;;;;;;5039772;28;20060;-67
2022/10/13 04:21:23;;;;;;;26.55;18.70;;;9.80;99.90;;;;;;5041187;28;20059;-67
2022/10/13 04:23:50;;;;;;;36.95;20.55;;;9.80;99.90;;;;;;5041420;28;20059;-68
2022/10/13 04:26:21;;;;;;;36.10;20.02;;;9.80;99.90;;;;;;5040578;28;20046;-67
2022/10/13 04:28:48;;;;;;;32.72;21.63;;;9.80;99.90;;;;;;5039275;28;20485;-68
2022/10/13 04:31:14;;;;;;;35.53;21.50;;;9.80;99.90;;;;;;5037611;28;20041;-67
2022/10/13 04:33:40;;;;;;;32.60;20.98;;;9.90;99.90;;;;;;5039491;28;20033;-68
2022/10/13 04:36:07;;;;;;;42.83;21.45;;;9.90;99.90;;;;;;5041680;28;20435;-69
2022/10/13 04:38:33;;;;;;;33.42;20.35;;;9.90;99.90;;;;;;5039956;28;20052;-68
2022/10/13 04:41:02;;;;;;;37.22;21.25;;;9.90;99.90;;;;;;5040641;28;20029;-68
2022/10/13 04:43:28;;;;;;;40.00;22.55;;;9.90;99.90;;;;;;5036917;28;20124;-67
2022/10/13 04:46:07;;;;;;;37.38;22.55;;;9.90;99.90;;;;;;5040467;28;20055;-67
2022/10/13 04:48:33;;;;;;;37.67;21.05;;;9.90;99.90;;;;;;5040864;28;20080;-66
2022/10/13 04:51:04;;;;;;;35.45;21.35;;;9.90;99.90;;;;;;5041321;28;20043;-67
2022/10/13 04:53:30;;;;;;;38.53;22.30;;;9.90;99.90;;;;;;5042681;28;20037;-66
2022/10/13 04:56:01;;;;;;;39.30;21.60;;;9.90;99.90;;;;;;5039444;28;20044;-67
2022/10/13 04:58:27;;;;;;;38.45;23.13;;;9.90;99.90;;;;;;5042020;28;20103;-66
2022/10/13 05:00:53;;;;;;;45.22;23.40;;;9.90;99.90;;;;;;5044207;28;20032;-66
2022/10/13 05:03:18;;;;;;;44.15;23.58;;;9.90;99.90;;;;;;5040985;28;20128;-66
2022/10/13 05:05:44;;;;;;;33.30;21.70;;;9.90;99.90;;;;;;5041746;28;20030;-66
2022/10/13 05:08:10;;;;;;;41.65;24.13;;;9.90;99.90;;;;;;5041253;28;20052;-66
2022/10/13 05:10:36;;;;;;;35.63;22.42;;;9.90;99.90;;;;;;5036664;28;20033;-66
2022/10/13 05:13:02;;;;;;;39.58;22.58;;;9.90;99.90;;;;;;5038902;28;20086;-66
2022/10/13 05:15:27;;;;;;;39.45;22.80;;;9.90;99.90;;;;;;5040585;28;20449;-66
2022/10/13 05:17:53;;;;;;;41.70;22.92;;;9.90;99.90;;;;;;5042605;28;20041;-66
2022/10/13 05:20:19;;;;;;;43.47;23.58;;;9.90;99.90;;;;;;5038220;28;20121;-66
2022/10/13 05:22:44;;;;;;;40.05;23.65;;;9.90;99.90;;;;;;5039344;28;20036;-66
2022/10/13 05:25:10;;;;;;;40.63;22.90;;;10.00;99.90;;;;;;5038987;28;20049;-66
2022/10/13 05:27:36;;;;;;;35.35;21.23;;;9.90;99.90;;;;;;5040870;28;20447;-66
2022/10/13 05:30:01;;;;;;;39.55;23.75;;;9.80;99.90;;;;;;5040980;28;20034;-66
2022/10/13 05:32:27;;;;;;;41.63;23.70;;;9.90;99.90;;;;;;5040736;28;20029;-65
2022/10/13 05:34:53;;;;;;;39.53;23.25;;;10.00;99.90;;;;;;5040870;28;20143;-65
2022/10/13 05:37:21;;;;;;;41.75;23.75;;;9.90;99.90;;;;;;5039621;28;20044;-65
2022/10/13 05:39:47;;;;;;;40.13;23.52;;;10.00;99.90;;;;;;5037841;28;20079;-66
2022/10/13 05:42:13;;;;;;;41.70;24.13;;;10.00;99.90;;;;;;5040967;28;20048;-66
2022/10/13 05:44:39;;;;;;;49.67;25.02;;;10.00;99.90;;;;;;5036949;28;20033;-66
2022/10/13 05:47:04;;;;;;;52.05;25.30;;;10.00;99.90;;;;;;5017983;28;20376;-66
2022/10/13 05:49:30;;;;;;;44.13;24.50;;;10.00;99.90;;;;;;5035840;28;20523;-67
2022/10/13 05:52:02;;;;;;;48.88;24.25;;;10.00;99.90;;;;;;5041403;28;20037;-66
2022/10/13 05:54:38;;;;;;;43.38;23.63;;;10.00;99.90;;;;;;5036746;28;20045;-66
2022/10/13 05:57:09;;;;;;;58.05;26.23;;;10.00;99.90;;;;;;5041855;28;20045;-66
2022/10/13 05:59:42;;;;;;;41.97;23.48;;;10.00;99.90;;;;;;5045795;28;20037;-66
2022/10/13 06:02:11;;;;;;;41.50;22.65;;;10.10;99.90;;;;;;5045168;28;20125;-67
2022/10/13 06:04:42;;;;;;;38.28;23.10;;;10.00;99.90;;;;;;5045601;28;20488;-66
2022/10/13 06:07:08;;;;;;;42.83;22.95;;;10.00;99.90;;;;;;5045021;28;20056;-67
2022/10/13 06:09:36;;;;;;;52.25;24.65;;;10.10;99.90;;;;;;5042609;28;20025;-66
2022/10/13 06:12:04;;;;;;;54.95;25.63;;;10.10;99.90;;;;;;5042017;28;20037;-66
2022/10/13 06:14:30;;;;;;;42.53;24.05;;;10.10;99.90;;;;;;5044077;28;20041;-66
2022/10/13 06:16:55;;;;;;;37.25;22.98;;;10.10;99.90;;;;;;5043299;28;20542;-66
2022/10/13 06:19:21;;;;;;;39.40;22.60;;;10.10;99.90;;;;;;5045173;28;20060;-66
2022/10/13 06:21:46;;;;;;;34.53;23.38;;;10.10;99.90;;;;;;5040826;28;20049;-66
2022/10/13 06:24:12;;;;;;;39.42;24.42;;;10.20;99.90;;;;;;5044548;28;20041;-66
2022/10/13 06:26:38;;;;;;;42.30;24.27;;;10.20;99.90;;;;;;5045490;28;20041;-66
2022/10/13 06:29:04;;;;;;;43.22;23.80;;;10.20;99.90;;;;;;5039210;28;20080;-67
2022/10/13 06:31:29;;;;;;;45.60;26.15;;;10.20;99.90;;;;;;5042862;28;20033;-66
2022/10/13 06:33:55;;;;;;;47.60;25.25;;;10.20;99.90;;;;;;5041436;28;20163;-66
2022/10/13 06:36:21;;;;;;;39.60;24.42;;;10.30;99.90;;;;;;5040217;28;20506;-66
2022/10/13 06:38:46;;;;;;;46.72;25.38;;;10.30;99.90;;;;;;5036285;28;20139;-66
2022/10/13 06:41:13;;;;;;;38.03;23.02;;;10.20;99.90;;;;;;5038807;28;20042;-66
2022/10/13 06:43:39;;;;;;;51.15;25.67;;;10.30;99.90;;;;;;5041159;28;20109;-67
2022/10/13 06:46:05;;;;;;;54.95;26.70;;;10.40;99.90;;;;;;5037517;28;20037;-67
2022/10/13 06:48:31;;;;;;;43.90;24.63;;;10.40;99.90;;;;;;5034887;28;20052;-67
2022/10/13 06:51:23;;;;;;;44.25;25.08;;;10.40;99.90;;;;;;5035332;28;20417;-67
2022/10/13 06:53:49;;;;;;;43.70;24.17;;;10.40;99.90;;;;;;5034086;28;20061;-67
2022/10/13 06:56:15;;;;;;;52.08;26.38;;;10.40;99.90;;;;;;5043798;28;20033;-68
2022/10/13 06:58:40;;;;;;;43.88;24.30;;;10.40;99.90;;;;;;5034091;28;20111;-67
2022/10/13 07:01:06;;;;;;;36.92;23.58;;;10.40;99.90;;;;;;5038492;28;20433;-67
2022/10/13 07:03:34;;;;;;;47.17;25.23;;;10.50;99.90;;;;;;5037885;28;20458;-67
2022/10/13 07:06:07;;;;;;;53.67;25.92;;;10.50;99.90;;;;;;5035546;28;20025;-67
2022/10/13 07:08:35;;;;;;;37.25;23.02;;;10.50;99.90;;;;;;5039960;28;20516;-67
2022/10/13 07:11:13;;;;;;;56.55;27.88;;;10.50;99.90;;;;;;5040217;28;21038;-67
2022/10/13 07:13:42;;;;;;;38.20;24.58;;;10.50;99.90;;;;;;5036525;28;20040;-67
2022/10/13 07:16:08;;;;;;;45.40;25.17;;;10.50;99.90;;;;;;5036349;28;20063;-67
2022/10/13 07:18:34;;;;;;;50.55;26.00;;;10.60;99.90;;;;;;5035603;28;20079;-66
2022/10/13 07:21:00;;;;;;;40.50;23.73;;;10.60;99.90;;;;;;5041149;28;20048;-67
2022/10/13 07:23:27;;;;;;;52.90;25.70;;;10.60;99.90;;;;;;5041391;28;20115;-67
2022/10/13 07:25:55;;;;;;;46.63;24.50;;;10.70;99.90;;;;;;5038055;28;20076;-66
2022/10/13 07:28:25;;;;;;;41.70;24.58;;;10.70;99.90;;;;;;5037434;28;20053;-67
2022/10/13 07:30:51;;;;;;;42.25;25.40;;;10.70;99.90;;;;;;5038964;28;20048;-66
2022/10/13 07:33:17;;;;;;;46.25;26.50;;;10.70;99.90;;;;;;5033538;28;20109;-67
2022/10/13 07:35:42;;;;;;;37.75;25.45;;;10.80;99.90;;;;;;5040412;28;20120;-67
2022/10/13 07:38:08;;;;;;;46.92;25.05;;;10.80;99.90;;;;;;5038050;28;20112;-67
2022/10/13 07:40:34;;;;;;;47.40;25.35;;;10.90;99.90;;;;;;5041372;28;20484;-67
2022/10/13 07:43:01;;;;;;;46.75;26.35;;;10.90;99.90;;;;;;5038959;28;20087;-67
2022/10/13 07:45:27;;;;;;;44.42;26.75;;;11.00;99.90;;;;;;5034433;28;20060;-67
2022/10/13 07:47:52;;;;;;;52.08;27.15;;;11.00;99.90;;;;;;5039384;28;20044;-67
2022/10/13 07:50:19;;;;;;;49.33;27.88;;;11.10;99.90;;;;;;5039424;28;20063;-67
2022/10/13 07:52:45;;;;;;;45.20;24.98;;;11.20;99.90;;;;;;5040540;28;20052;-67
2022/10/13 07:55:11;;;;;;;43.63;26.05;;;11.20;99.90;;;;;;5035879;28;20041;-67
2022/10/13 07:57:37;;;;;;;44.05;25.20;;;11.30;99.90;;;;;;5044299;28;20120;-67
2022/10/13 08:00:08;;;;;;;46.05;26.38;;;11.40;99.90;;;;;;5040052;28;20048;-67
2022/10/13 08:02:34;;;;;;;36.13;22.98;;;11.50;99.90;;;;;;5040871;28;20143;-67
2022/10/13 08:05:01;;;;;;;34.55;22.95;;;11.60;99.90;;;;;;5034434;28;20089;-67
2022/10/13 08:07:27;;;;;;;33.60;22.65;;;11.60;99.90;;;;;;5041342;28;20530;-67
2022/10/13 08:09:52;;;;;;;47.90;26.08;;;11.70;99.90;;;;;;5043680;28;20079;-67
2022/10/13 08:12:18;;;;;;;37.08;25.08;;;11.90;99.90;;;;;;5038362;28;20123;-67
2022/10/13 08:14:44;;;;;;;45.60;26.60;;;12.00;99.90;;;;;;5040841;28;20045;-67
2022/10/13 08:17:09;;;;;;;40.17;25.17;;;12.20;99.90;;;;;;5041920;28;20064;-67
2022/10/13 08:19:35;;;;;;;34.83;24.50;;;12.30;99.90;;;;;;5043945;28;20029;-67
2022/10/13 08:22:01;;;;;;;47.40;27.13;;;12.30;99.90;;;;;;5037643;28;20059;-67
2022/10/13 08:24:27;;;;;;;37.30;22.70;;;12.40;99.90;;;;;;5036455;28;20097;-67
2022/10/13 08:26:53;;;;;;;41.75;23.48;;;12.40;99.90;;;;;;5041140;28;20044;-67
2022/10/13 08:29:19;;;;;;;41.17;25.58;;;12.50;99.90;;;;;;5036892;28;20045;-67
2022/10/13 08:31:44;;;;;;;36.55;22.73;;;12.60;99.90;;;;;;5040462;28;20049;-66
2022/10/13 08:34:10;;;;;;;34.05;23.40;;;12.70;99.90;;;;;;5039067;28;20175;-67
2022/10/13 08:36:37;;;;;;;41.08;24.23;;;12.70;99.90;;;;;;5036899;28;20529;-67
2022/10/13 08:39:03;;;;;;;32.70;23.67;;;12.80;99.90;;;;;;5039652;28;20048;-67
2022/10/13 08:41:38;;;;;;;40.00;24.70;;;12.90;99.90;;;;;;5043910;28;20421;-67
2022/10/13 08:44:25;;;;;;;36.70;23.08;;;13.00;99.90;;;;;;5041174;28;20044;-66
2022/10/13 08:46:59;;;;;;;36.47;23.10;;;13.00;99.90;;;;;;5041148;28;20064;-67
2022/10/13 08:49:25;;;;;;;37.65;23.20;;;13.10;99.90;;;;;;5040560;28;20037;-67
2022/10/13 08:51:52;;;;;;;39.53;22.88;;;13.20;99.90;;;;;;5036149;28;20034;-66
2022/10/13 08:54:22;;;;;;;41.08;23.48;;;13.30;99.90;;;;;;5040898;28;20055;-66
2022/10/13 08:56:49;;;;;;;36.95;24.02;;;13.40;99.90;;;;;;5040710;28;20047;-67
2022/10/13 08:59:17;;;;;;;29.90;19.98;;;13.40;99.90;;;;;;5037466;28;20569;-67
2022/10/13 09:01:48;;;;;;;33.95;20.92;;;13.50;99.90;;;;;;5035936;28;20147;-67
2022/10/13 09:04:25;;;;;;;34.13;21.38;;;13.40;99.90;;;;;;5039046;28;20572;-67
2022/10/13 09:07:13;;;;;;;33.13;22.17;;;13.40;99.90;;;;;;5041137;28;20052;-67
2022/10/13 09:09:39;;;;;;;30.27;21.67;;;13.40;99.90;;;;;;5036984;28;20079;-69
2022/10/13 09:12:05;;;;;;;25.13;20.17;;;13.30;99.90;;;;;;5036798;28;20096;-70
2022/10/13 09:14:36;;;;;;;33.22;23.35;;;13.30;99.90;;;;;;5037287;28;20044;-69
2022/10/13 09:17:25;;;;;;;40.40;22.90;;;13.30;99.90;;;;;;5042094;28;20454;-70
2022/10/13 09:20:20;;;;;;;35.15;21.95;;;13.10;99.90;;;;;;5053575;28;20041;-71
2022/10/13 09:23:17;;;;;;;35.28;23.30;;;13.20;99.90;;;;;;5034025;28;20493;-70
2022/10/13 09:25:47;;;;;;;36.90;23.48;;;13.20;99.90;;;;;;5042210;28;20041;-69
2022/10/13 09:28:39;;;;;;;37.38;24.02;;;13.20;99.90;;;;;;5017982;28;20055;-68
2022/10/13 09:31:26;;;;;;;37.95;25.10;;;13.30;99.90;;;;;;5029777;28;20379;-68
2022/10/13 09:34:01;;;;;;;41.40;24.60;;;13.30;99.90;;;;;;5043130;28;20079;-68
2022/10/13 09:36:27;;;;;;;39.35;26.00;;;13.40;99.90;;;;;;5046110;28;20036;-68
2022/10/13 09:39:12;;;;;;;41.63;25.92;;;13.40;99.90;;;;;;5041032;28;20057;-68
2022/10/13 09:41:44;;;;;;;37.03;25.20;;;13.50;99.90;;;;;;5040954;28;20077;-68
2022/10/13 09:44:17;;;;;;;41.58;25.08;;;13.60;99.90;;;;;;5048925;28;20095;-67
2022/10/13 09:46:51;;;;;;;45.58;25.40;;;13.70;99.90;;;;;;5043662;28;20048;-68
2022/10/13 09:49:36;;;;;;;40.50;26.50;;;13.80;99.90;;;;;;5037647;28;20033;-67
2022/10/13 09:52:13;;;;;;;38.97;25.40;;;13.80;99.90;;;;;;5045506;28;20104;-68
2022/10/13 09:54:39;;;;;;;37.30;25.02;;;13.80;99.90;;;;;;5044416;28;20401;-68
2022/10/13 09:57:39;;;;;;;33.65;23.00;;;13.80;99.90;;;;;;5042481;28;20033;-67
2022/10/13 10:00:16;;;;;;;35.17;22.98;;;13.90;99.90;;;;;;5044077;28;20042;-67
2022/10/13 10:02:52;;;;;;;43.42;25.15;;;13.80;99.90;;;;;;5041630;28;20045;-67
2022/10/13 10:05:25;;;;;;;37.20;22.02;;;13.80;99.90;;;;;;5044510;28;20045;-67
2022/10/13 10:07:51;;;;;;;29.92;22.77;;;13.80;99.90;;;;;;5040201;28;20053;-67
2022/10/13 10:10:33;;;;;;;32.22;22.73;;;13.70;99.90;;;;;;5040999;28;20148;-67
2022/10/13 10:13:00;;;;;;;35.33;22.35;;;13.70;99.90;;;;;;5041952;28;20397;-67
2022/10/13 10:15:53;;;;;;;32.80;23.30;;;13.60;99.90;;;;;;5039946;28;20112;-67
2022/10/13 10:18:35;;;;;;;32.67;23.95;;;13.60;99.90;;;;;;5035526;28;20056;-69
2022/10/13 10:21:28;;;;;;;45.88;25.48;;;13.50;99.90;;;;;;5041526;28;20083;-69
2022/10/13 10:24:24;;;;;;;34.75;24.15;;;13.50;99.90;;;;;;5042003;28;20136;-70
2022/10/13 10:27:12;;;;;;;34.88;25.27;;;13.50;99.90;;;;;;5042809;28;20049;-69
2022/10/13 10:30:13;;;;;;;44.55;28.20;;;13.50;99.90;;;;;;5043005;28;20040;-69
2022/10/13 10:33:02;;;;;;;41.38;27.65;;;13.50;99.90;;;;;;5045143;28;20033;-69
2022/10/13 10:35:46;;;;;;;38.65;25.25;;;13.50;99.90;;;;;;5043035;28;20044;-69
2022/10/13 10:38:27;;;;;;;36.22;26.05;;;13.50;99.90;;;;;;5039318;28;20058;-70
2022/10/13 10:41:24;;;;;;;35.85;25.23;;;13.50;99.90;;;;;;5041152;28;20053;-70
2022/10/13 10:44:13;;;;;;;48.05;29.00;;;13.50;99.90;;;;;;5039491;28;20115;-69
2022/10/13 10:46:47;;;;;;;37.50;26.80;;;13.50;99.90;;;;;;5037678;28;20083;-69
2022/10/13 10:49:15;;;;;;;33.70;26.67;;;13.50;99.90;;;;;;5042789;28;20036;-68
2022/10/13 10:51:41;;;;;;;41.83;27.98;;;13.50;99.90;;;;;;5042433;28;20064;-68
2022/10/13 10:54:37;;;;;;;38.67;28.02;;;13.50;99.90;;;;;;5044879;28;20045;-68
2022/10/13 10:57:31;;;;;;;45.13;29.73;;;13.60;99.90;;;;;;5046335;28;20048;-68
2022/10/13 11:00:05;;;;;;;34.85;27.67;;;13.70;99.90;;;;;;5043455;28;20559;-67
2022/10/13 11:02:42;;;;;;;38.60;29.70;;;13.70;99.90;;;;;;5047217;28;20052;-67
2022/10/13 11:05:08;;;;;;;40.17;28.95;;;13.80;99.90;;;;;;5035723;28;20045;-68
2022/10/13 11:07:44;;;;;;;42.38;30.55;;;13.90;99.90;;;;;;5039161;28;20063;-67
2022/10/13 11:10:12;;;;;;;43.30;29.15;;;14.00;99.90;;;;;;5039485;28;20543;-67
2022/10/13 11:12:50;;;;;;;37.95;28.13;;;14.00;99.90;;;;;;5043152;28;20068;-67
2022/10/13 11:15:25;;;;;;;41.47;31.10;;;14.00;99.90;;;;;;5043788;28;20461;-67
2022/10/13 11:17:51;;;;;;;41.72;30.30;;;14.00;99.90;;;;;;5043025;28;20116;-67
2022/10/13 11:20:19;;;;;;;42.83;29.98;;;14.10;99.90;;;;;;5043567;28;20056;-67
2022/10/13 11:22:57;;;;;;;38.83;29.77;;;14.10;99.90;;;;;;5040928;28;20180;-67
2022/10/13 11:25:46;;;;;;;36.25;28.05;;;14.20;99.90;;;;;;5036005;28;20120;-67
2022/10/13 11:28:22;;;;;;;36.63;29.42;;;14.30;99.90;;;;;;5039864;28;20041;-67
2022/10/13 11:30:54;;;;;;;35.95;28.92;;;14.20;99.90;;;;;;5041597;28;20493;-67
2022/10/13 11:33:35;;;;;;;41.67;31.02;;;14.20;99.90;;;;;;5040016;28;20103;-67
2022/10/13 11:36:31;;;;;;;41.63;32.03;;;14.20;99.90;;;;;;5037061;28;20111;-67
2022/10/13 11:39:15;;;;;;;40.88;29.80;;;14.10;99.90;;;;;;5042057;28;20063;-67
2022/10/13 11:42:02;;;;;;;48.42;32.65;;;14.10;99.90;;;;;;5037478;28;20088;-67
2022/10/13 11:44:55;;;;;;;40.22;30.33;;;14.10;99.90;;;;;;5034562;28;20404;-67
2022/10/13 11:47:27;;;;;;;45.35;30.90;;;14.20;99.90;;;;;;5041681;28;20569;-67
2022/10/13 11:50:18;;;;;;;41.33;29.95;;;14.10;99.90;;;;;;5041998;28;20041;-67
2022/10/13 11:53:06;;;;;;;41.42;29.67;;;14.10;99.90;;;;;;5040417;28;20125;-67
2022/10/13 11:55:53;;;;;;;35.35;30.58;;;14.10;99.90;;;;;;5043276;28;20139;-67
2022/10/13 11:58:24;;;;;;;42.50;31.73;;;14.10;99.90;;;;;;5044538;28;20481;-67
2022/10/13 12:01:00;;;;;;;49.25;34.20;;;14.00;99.90;;;;;;5038990;28;20416;-67
2022/10/13 12:03:33;;;;;;;47.08;31.88;;;14.00;99.90;;;;;;5043101;28;20118;-67
2022/10/13 12:06:06;;;;;;;48.17;33.90;;;14.00;99.90;;;;;;5044832;28;20049;-67
2022/10/13 12:08:34;;;;;;;40.72;31.55;;;14.00;99.90;;;;;;5043142;28;20115;-67
2022/10/13 12:11:04;;;;;;;42.03;31.90;;;14.00;99.90;;;;;;5039968;28;20485;-67
2022/10/13 12:13:32;;;;;;;43.53;32.25;;;14.00;99.90;;;;;;5042024;28;20485;-67
2022/10/13 12:16:02;;;;;;;40.75;33.58;;;14.00;99.90;;;;;;5046066;28;20041;-67
2022/10/13 12:18:32;;;;;;;50.28;34.78;;;14.10;99.90;;;;;;5039603;28;20037;-68
2022/10/13 12:21:02;;;;;;;44.15;33.92;;;14.10;99.90;;;;;;5039910;28;20059;-69
2022/10/13 12:23:29;;;;;;;40.55;32.50;;;14.00;99.90;;;;;;5038252;28;20045;-69
2022/10/13 12:25:58;;;;;;;57.67;36.78;;;14.00;99.90;;;;;;5041493;28;20120;-70
2022/10/13 12:28:26;;;;;;;49.30;36.10;;;14.00;99.90;;;;;;5038028;28;20646;-69
2022/10/13 12:30:59;;;;;;;41.33;33.85;;;14.10;99.90;;;;;;5038261;28;20034;-68
2022/10/13 12:33:30;;;;;;;41.40;32.83;;;14.10;99.90;;;;;;5045011;28;20551;-68
2022/10/13 12:36:15;;;;;;;45.92;33.38;;;14.20;99.90;;;;;;5027637;28;20053;-68
2022/10/13 12:38:45;;;;;;;45.85;32.38;;;14.30;99.90;;;;;;5043075;28;20041;-68
2022/10/13 12:41:15;;;;;;;37.95;29.58;;;14.30;99.90;;;;;;5039730;28;20053;-67
2022/10/13 12:43:41;;;;;;;29.98;25.95;;;14.40;99.90;;;;;;5042291;28;20627;-67
2022/10/13 12:46:08;;;;;;;32.65;25.75;;;14.30;99.90;;;;;;5042404;28;20437;-67
2022/10/13 12:48:36;;;;;;;31.10;24.65;;;14.40;99.90;;;;;;5037444;28;20099;-67
2022/10/13 12:51:25;;;;;;;32.13;21.40;;;14.50;99.90;;;;;;5034134;28;20053;-67